Jerseyville, Illinois
Current Conditions -  °F | °C
As of 5:54 AM on Friday 19 Dec 2014 (Local Time) from KSET Reporting Station
Overcast Overcast  
Wind Chill: 23°   Ceiling: 3500
Heat Index: 31°   Visibility: 7mi
Dew Point: 27°   Wind: 8mph
Humidity: 85%   Direction: 40°NE
Pressure: 30.28"   Gusts: NA
Location:  39.12°N, 90.33°W
Report Text: KSET 191154Z AUTO 04007KT 7SM OVC035 M01/M03 A3028 RMK AO2 SLP256 T10061028 10000 21006 58006
Loading
Personal Weather Stations






























Interactive Weather Map New forecast layout! Learn more

10-Day Weather Forecast

Advertisements
Track Severe Weather on mobile